Time;durP1;ratioP1;P1;durP2;ratioP2;P2;SDS_P1;SDS_P2;PMS_P1;PMS_P2;Temp;Humidity;BMP_temperature;BMP_pressure;BME280_temperature;BME280_humidity;BME280_pressure;Samples;Min_cycle;Max_cycle;Signal;HPM_P1;HPM_P2
2021/12/04 00:00:01;;;;;;;53.28;26.13;;;4.60;99.90;;;;;;5056309;28;20075;-66
2021/12/04 00:02:26;;;;;;;55.30;26.77;;;4.60;99.90;;;;;;5053514;28;20132;-67
2021/12/04 00:04:54;;;;;;;55.53;26.92;;;4.50;99.90;;;;;;5053976;28;20140;-66
2021/12/04 00:07:22;;;;;;;52.78;26.58;;;4.50;99.90;;;;;;5062271;28;20037;-66
2021/12/04 00:09:50;;;;;;;54.58;27.00;;;4.60;99.90;;;;;;5056736;28;20045;-67
2021/12/04 00:12:17;;;;;;;61.80;26.50;;;4.50;99.90;;;;;;5068816;28;20429;-67
2021/12/04 00:14:44;;;;;;;54.50;25.43;;;4.50;99.90;;;;;;5055924;28;20052;-67
2021/12/04 00:17:10;;;;;;;58.45;27.60;;;4.50;99.90;;;;;;5066808;28;20047;-68
2021/12/04 00:19:36;;;;;;;61.25;28.45;;;4.50;99.90;;;;;;5064685;28;20044;-66
2021/12/04 00:22:03;;;;;;;58.90;26.92;;;4.50;99.90;;;;;;5054881;28;20053;-66
2021/12/04 00:24:29;;;;;;;62.65;28.77;;;4.50;99.90;;;;;;5056495;28;20045;-67
2021/12/04 00:26:55;;;;;;;67.20;30.10;;;4.50;99.90;;;;;;5066593;28;20041;-66
2021/12/04 00:29:22;;;;;;;61.55;28.17;;;4.50;99.90;;;;;;5057187;28;20048;-67
2021/12/04 00:31:50;;;;;;;69.85;28.40;;;4.50;99.90;;;;;;5061857;28;20063;-67
2021/12/04 00:34:18;;;;;;;71.63;29.17;;;4.50;99.90;;;;;;5054627;28;20053;-66
2021/12/04 00:50:07;;;;;;;66.25;27.55;;;4.50;99.90;;;;;;5058792;28;20057;-67
2021/12/04 00:52:32;;;;;;;80.45;30.98;;;4.50;99.90;;;;;;5054432;28;20090;-66
2021/12/04 00:54:58;;;;;;;71.03;30.50;;;4.50;99.90;;;;;;5066019;28;20048;-66
2021/12/04 00:57:24;;;;;;;72.95;29.65;;;4.50;99.90;;;;;;5057239;28;20178;-66
2021/12/04 00:59:50;;;;;;;71.75;29.73;;;4.50;99.90;;;;;;5059113;28;20534;-66
2021/12/04 01:02:19;;;;;;;69.57;29.25;;;4.50;99.90;;;;;;5056351;28;20172;-67
2021/12/04 01:04:44;;;;;;;78.35;30.52;;;4.50;99.90;;;;;;5061105;28;20135;-67
2021/12/04 01:07:10;;;;;;;81.55;30.35;;;4.50;99.90;;;;;;5056536;28;20112;-67
2021/12/04 01:09:36;;;;;;;73.78;29.27;;;4.50;99.90;;;;;;5056352;28;20124;-67
2021/12/04 01:12:03;;;;;;;75.65;31.10;;;4.50;99.90;;;;;;5062446;28;20048;-67
2021/12/04 01:14:31;;;;;;;77.32;30.52;;;4.50;99.90;;;;;;5062466;28;20037;-67
2021/12/04 01:16:58;;;;;;;76.60;29.85;;;4.50;99.90;;;;;;5067807;28;20056;-66
2021/12/04 01:19:25;;;;;;;87.30;31.50;;;4.50;99.90;;;;;;5055356;28;20071;-67
2021/12/04 01:21:51;;;;;;;75.18;30.75;;;4.50;99.90;;;;;;5056747;28;20041;-66
2021/12/04 01:24:17;;;;;;;87.32;30.67;;;4.50;99.90;;;;;;5061103;28;20166;-66
2021/12/04 01:26:43;;;;;;;81.13;30.38;;;4.50;99.90;;;;;;5062722;28;20044;-66
2021/12/04 01:29:08;;;;;;;80.00;28.60;;;4.50;99.90;;;;;;5059301;28;20068;-66
2021/12/04 01:31:34;;;;;;;77.40;29.38;;;4.50;99.90;;;;;;5056889;28;20075;-66
2021/12/04 01:34:00;;;;;;;78.15;28.67;;;4.50;99.90;;;;;;5062417;28;20044;-67
2021/12/04 01:36:25;;;;;;;81.68;29.58;;;4.50;99.90;;;;;;5066938;28;20463;-67
2021/12/04 01:38:51;;;;;;;76.35;29.38;;;4.50;99.90;;;;;;5059943;28;20045;-67
2021/12/04 01:41:17;;;;;;;80.53;29.30;;;4.50;99.90;;;;;;5057445;28;20037;-67
2021/12/04 01:43:44;;;;;;;84.47;29.95;;;4.50;99.90;;;;;;5055741;28;20091;-67
2021/12/04 01:46:09;;;;;;;78.25;30.77;;;4.50;99.90;;;;;;5055082;28;20033;-66
2021/12/04 01:48:35;;;;;;;77.15;29.50;;;4.50;99.90;;;;;;5064194;28;20043;-66
2021/12/04 01:51:01;;;;;;;79.22;29.30;;;4.50;99.90;;;;;;5057075;28;20083;-67
2021/12/04 01:53:27;;;;;;;79.72;30.10;;;4.50;99.90;;;;;;5059992;28;20040;-67
2021/12/04 01:55:54;;;;;;;83.55;29.30;;;4.50;99.90;;;;;;5060779;28;20041;-67
2021/12/04 01:58:22;;;;;;;87.35;30.05;;;4.50;99.90;;;;;;5058642;28;20459;-67
2021/12/04 02:00:48;;;;;;;79.85;28.83;;;4.50;99.90;;;;;;5052823;28;20041;-66
2021/12/04 02:03:14;;;;;;;81.90;28.20;;;4.50;99.90;;;;;;5057987;28;20467;-67
2021/12/04 02:05:41;;;;;;;89.85;28.52;;;4.50;99.90;;;;;;5064835;28;20098;-67
2021/12/04 02:08:13;;;;;;;81.50;29.27;;;4.50;99.90;;;;;;5057987;28;20045;-66
2021/12/04 02:10:39;;;;;;;80.72;29.23;;;4.50;99.90;;;;;;5045039;28;20151;-67
2021/12/04 02:13:06;;;;;;;85.30;30.25;;;4.50;99.90;;;;;;5055682;28;20041;-67
2021/12/04 02:15:31;;;;;;;84.82;29.75;;;4.50;99.90;;;;;;5064697;28;20487;-68
2021/12/04 02:17:58;;;;;;;88.25;30.63;;;4.50;99.90;;;;;;5059079;28;20128;-67
2021/12/04 02:20:27;;;;;;;85.45;28.13;;;4.50;99.90;;;;;;5062095;28;20056;-67
2021/12/04 02:22:53;;;;;;;85.97;30.85;;;4.50;99.90;;;;;;5060970;28;20056;-66
2021/12/04 02:25:19;;;;;;;89.45;28.83;;;4.50;99.90;;;;;;5058652;28;20036;-68
2021/12/04 02:27:46;;;;;;;90.72;28.85;;;4.50;99.90;;;;;;5060109;28;20037;-66
2021/12/04 02:30:16;;;;;;;92.65;30.90;;;4.50;99.90;;;;;;5056863;28;20115;-66
2021/12/04 02:32:42;;;;;;;87.25;29.63;;;4.50;99.90;;;;;;5058135;28;20055;-67
2021/12/04 02:35:10;;;;;;;96.75;31.85;;;4.50;99.90;;;;;;5056101;28;20104;-68
2021/12/04 02:37:38;;;;;;;97.22;29.83;;;4.50;99.90;;;;;;5059940;28;20044;-67
2021/12/04 02:40:07;;;;;;;78.22;29.17;;;4.40;99.90;;;;;;5058949;28;20069;-66
2021/12/04 02:42:33;;;;;;;81.28;28.88;;;4.50;99.90;;;;;;5060248;28;20045;-67
2021/12/04 02:45:01;;;;;;;96.70;29.92;;;4.40;99.90;;;;;;5058513;28;20041;-66
2021/12/04 02:47:28;;;;;;;96.88;28.85;;;4.50;99.90;;;;;;5058464;28;20064;-67
2021/12/04 02:49:54;;;;;;;91.90;29.38;;;4.40;99.90;;;;;;5064388;28;20410;-67
2021/12/04 02:52:20;;;;;;;98.38;29.35;;;4.40;99.90;;;;;;5056450;28;20063;-67
2021/12/04 02:54:47;;;;;;;83.75;28.08;;;4.50;99.90;;;;;;5054792;28;20098;-67
2021/12/04 02:57:15;;;;;;;100.03;28.58;;;4.40;99.90;;;;;;5055337;28;20072;-67
2021/12/04 02:59:41;;;;;;;91.88;29.08;;;4.50;99.90;;;;;;5056483;28;20059;-68
2021/12/04 03:02:22;;;;;;;87.88;27.90;;;4.40;99.90;;;;;;5064630;28;20068;-67
2021/12/04 03:04:50;;;;;;;88.85;28.13;;;4.40;99.90;;;;;;5055210;28;20438;-68
2021/12/04 03:07:17;;;;;;;95.55;27.23;;;4.40;99.90;;;;;;5058442;28;20048;-67
2021/12/04 03:09:43;;;;;;;81.53;27.10;;;4.40;99.90;;;;;;5065731;28;20070;-68
2021/12/04 03:12:10;;;;;;;97.70;28.50;;;4.40;99.90;;;;;;5059530;28;20439;-68
2021/12/04 03:14:36;;;;;;;94.63;28.00;;;4.40;99.90;;;;;;5057448;28;20049;-67
2021/12/04 03:17:05;;;;;;;93.65;28.52;;;4.50;99.90;;;;;;5055326;28;20064;-66
2021/12/04 03:19:30;;;;;;;105.20;29.17;;;4.40;99.90;;;;;;5053560;28;20493;-66
2021/12/04 03:21:56;;;;;;;91.35;29.33;;;4.40;99.90;;;;;;5056181;28;20098;-67
2021/12/04 03:24:23;;;;;;;92.05;29.23;;;4.40;99.90;;;;;;5065351;28;20049;-67
2021/12/04 03:26:50;;;;;;;101.50;29.80;;;4.40;99.90;;;;;;5052112;28;20068;-66
2021/12/04 03:29:19;;;;;;;88.50;27.85;;;4.40;99.90;;;;;;5060727;28;20140;-67
2021/12/04 03:40:06;;;;;;;76.15;26.00;;;4.40;99.90;;;;;;5059946;28;20076;-66
2021/12/04 03:42:37;;;;;;;71.43;25.45;;;4.40;99.90;;;;;;5066498;28;20053;-67
2021/12/04 03:45:06;;;;;;;75.03;25.67;;;4.40;99.90;;;;;;5065343;28;20044;-67
2021/12/04 03:47:32;;;;;;;73.03;25.45;;;4.40;99.90;;;;;;5061373;28;20399;-67
2021/12/04 03:49:57;;;;;;;69.35;25.08;;;4.40;99.90;;;;;;5059237;28;20052;-67
2021/12/04 03:52:23;;;;;;;68.03;24.77;;;4.40;99.90;;;;;;5052556;28;20439;-67
2021/12/04 03:54:49;;;;;;;67.30;23.52;;;4.40;99.90;;;;;;5067466;28;20096;-67
2021/12/04 03:57:15;;;;;;;68.22;23.50;;;4.40;99.90;;;;;;5059772;28;20047;-67
2021/12/04 03:59:45;;;;;;;68.40;24.02;;;4.40;99.90;;;;;;5061882;28;20059;-67
2021/12/04 04:02:13;;;;;;;72.45;24.35;;;4.40;99.90;;;;;;5063843;28;20110;-67
2021/12/04 04:04:39;;;;;;;66.22;23.15;;;4.40;99.90;;;;;;5051981;28;20093;-68
2021/12/04 04:07:06;;;;;;;77.22;22.55;;;4.40;99.90;;;;;;5051952;28;20067;-66
2021/12/04 04:09:32;;;;;;;57.45;20.88;;;4.30;99.90;;;;;;5054302;28;20406;-66
2021/12/04 04:11:58;;;;;;;60.65;21.83;;;4.40;99.90;;;;;;5052550;28;20049;-66
2021/12/04 04:14:25;;;;;;;58.05;22.02;;;4.40;99.90;;;;;;5058589;28;20114;-66
2021/12/04 04:16:55;;;;;;;62.50;21.60;;;4.30;99.90;;;;;;5064717;28;20040;-67
2021/12/04 04:19:22;;;;;;;63.75;22.10;;;4.30;99.90;;;;;;5052231;28;20075;-67
2021/12/04 04:21:47;;;;;;;62.28;22.23;;;4.30;99.90;;;;;;5053020;28;20106;-67
2021/12/04 04:24:16;;;;;;;61.17;20.67;;;4.30;99.90;;;;;;5065445;28;20053;-67
2021/12/04 04:26:43;;;;;;;59.20;21.77;;;4.30;99.90;;;;;;5066051;28;20041;-67
2021/12/04 04:29:10;;;;;;;58.45;20.77;;;4.30;99.90;;;;;;5072474;28;20048;-66
2021/12/04 04:31:46;;;;;;;62.30;21.40;;;4.30;99.90;;;;;;5065300;28;20040;-67
2021/12/04 04:34:13;;;;;;;62.40;21.63;;;4.30;99.90;;;;;;5060737;28;20045;-66
2021/12/04 05:01:27;;;;;;;53.58;18.58;;;4.30;99.90;;;;;;5064219;28;20148;-66
2021/12/04 05:14:33;;;;;;;65.65;21.73;;;4.30;99.90;;;;;;5063230;28;20103;-68
2021/12/04 05:17:05;;;;;;;56.45;20.67;;;4.30;99.90;;;;;;5062253;28;20060;-67
2021/12/04 05:19:45;;;;;;;61.20;20.13;;;4.30;99.90;;;;;;5070749;28;20142;-67
2021/12/04 05:22:13;;;;;;;56.35;19.65;;;4.30;99.90;;;;;;5064705;28;20557;-67
2021/12/04 05:24:41;;;;;;;57.30;19.63;;;4.30;99.90;;;;;;5053568;28;20098;-67
2021/12/04 05:27:07;;;;;;;52.97;18.67;;;4.30;99.90;;;;;;5062830;28;20167;-67
2021/12/04 05:29:33;;;;;;;51.88;21.33;;;4.30;99.90;;;;;;5065460;28;20044;-67
2021/12/04 05:31:59;;;;;;;60.70;20.20;;;4.30;99.90;;;;;;5056048;28;20088;-67
2021/12/04 05:34:25;;;;;;;49.33;19.33;;;4.20;99.90;;;;;;5062273;28;20045;-67
2021/12/04 05:36:51;;;;;;;54.65;17.98;;;4.30;99.90;;;;;;5059284;28;20138;-67
2021/12/04 05:39:16;;;;;;;51.33;18.05;;;4.30;99.90;;;;;;5068482;28;20072;-67
2021/12/04 05:41:42;;;;;;;52.75;18.85;;;4.30;99.90;;;;;;5067376;28;20063;-67
2021/12/04 05:44:10;;;;;;;45.65;17.50;;;4.20;99.90;;;;;;5062059;28;20048;-67
2021/12/04 05:46:43;;;;;;;53.67;18.80;;;4.30;99.90;;;;;;5053341;28;20049;-67
2021/12/04 05:49:23;;;;;;;47.13;17.42;;;4.20;99.90;;;;;;5063750;28;20387;-67
2021/12/04 05:52:07;;;;;;;45.80;17.15;;;4.20;99.90;;;;;;5068021;28;20068;-67
2021/12/04 05:54:48;;;;;;;55.60;18.13;;;4.20;99.90;;;;;;5055720;28;20041;-67
2021/12/04 05:57:14;;;;;;;47.67;17.35;;;4.20;99.90;;;;;;5064683;28;20562;-67
2021/12/04 05:59:39;;;;;;;56.70;17.75;;;4.20;99.90;;;;;;5055053;28;20117;-67
2021/12/04 06:02:05;;;;;;;47.15;17.63;;;4.20;99.90;;;;;;5060015;28;20062;-66
2021/12/04 06:04:31;;;;;;;48.47;18.50;;;4.10;99.90;;;;;;5062280;28;20086;-66
2021/12/04 06:06:57;;;;;;;45.40;17.70;;;4.20;99.90;;;;;;5065038;28;20106;-67
2021/12/04 06:09:22;;;;;;;49.78;18.77;;;4.30;99.90;;;;;;5059677;28;20092;-67
2021/12/04 06:11:48;;;;;;;49.53;18.60;;;4.10;99.90;;;;;;5036744;28;20041;-67
2021/12/04 06:14:14;;;;;;;49.40;17.98;;;4.10;99.90;;;;;;5063178;28;20123;-67
2021/12/04 06:16:40;;;;;;;43.85;17.13;;;4.20;99.90;;;;;;5056958;28;20194;-67
2021/12/04 06:19:13;;;;;;;51.25;18.83;;;4.20;99.90;;;;;;5067219;28;20052;-67
2021/12/04 06:24:23;;;;;;;47.88;18.20;;;4.10;99.90;;;;;;5069791;28;20450;-68
2021/12/04 06:26:49;;;;;;;45.97;17.27;;;4.20;99.90;;;;;;5059355;28;20125;-66
2021/12/04 06:29:15;;;;;;;48.00;17.63;;;4.10;99.90;;;;;;5057262;28;20052;-66
2021/12/04 06:31:41;;;;;;;48.97;17.77;;;4.20;99.90;;;;;;5055814;28;20124;-68
2021/12/04 06:34:06;;;;;;;45.47;17.75;;;4.20;99.90;;;;;;5059042;28;20563;-67
2021/12/04 06:36:34;;;;;;;51.17;18.42;;;4.20;99.90;;;;;;5054154;28;20037;-67
2021/12/04 06:39:00;;;;;;;49.00;18.67;;;4.20;99.90;;;;;;5052542;28;20052;-67
2021/12/04 06:41:25;;;;;;;50.28;19.42;;;4.20;99.90;;;;;;5053125;28;20045;-67
2021/12/04 06:43:52;;;;;;;50.60;19.17;;;4.20;99.90;;;;;;5050786;28;20055;-67
2021/12/04 06:46:20;;;;;;;55.70;18.65;;;4.20;99.90;;;;;;5044554;28;20045;-67
2021/12/04 06:51:26;;;;;;;52.83;18.33;;;4.20;99.90;;;;;;5060664;28;20052;-66
2021/12/04 06:56:40;;;;;;;53.03;18.77;;;4.20;99.90;;;;;;5053182;28;20075;-67
2021/12/04 06:59:09;;;;;;;56.13;18.02;;;4.20;99.90;;;;;;5069972;28;20036;-67
2021/12/04 07:01:37;;;;;;;54.78;18.15;;;4.20;99.90;;;;;;5059669;28;20081;-67
2021/12/04 07:04:03;;;;;;;55.73;18.20;;;4.30;99.90;;;;;;5052958;28;20049;-66
2021/12/04 07:06:29;;;;;;;49.00;17.15;;;4.20;99.90;;;;;;5054867;28;20049;-67
2021/12/04 07:08:57;;;;;;;55.22;19.08;;;4.30;99.90;;;;;;5052663;28;20044;-66
2021/12/04 07:11:22;;;;;;;55.70;19.60;;;4.30;99.90;;;;;;5059853;28;20119;-67
2021/12/04 07:13:48;;;;;;;59.42;19.90;;;4.30;99.90;;;;;;5061018;28;20266;-67
2021/12/04 07:16:16;;;;;;;54.70;18.88;;;4.30;99.90;;;;;;5060706;28;20044;-68
2021/12/04 07:18:42;;;;;;;;;;;4.30;99.90;;;;;;5053085;28;20403;-67
2021/12/04 07:21:08;;;;;;;56.53;17.98;;;4.30;99.90;;;;;;5059311;28;19928;-67
2021/12/04 07:23:33;;;;;;;53.78;18.95;;;4.30;99.90;;;;;;5054470;28;20044;-67
2021/12/04 07:26:00;;;;;;;54.72;19.08;;;4.30;99.90;;;;;;5053843;28;20202;-67
2021/12/04 07:28:26;;;;;;;59.22;20.05;;;4.30;99.90;;;;;;5061768;28;20056;-67
2021/12/04 07:30:52;;;;;;;59.58;21.27;;;4.20;99.90;;;;;;5055945;28;20045;-67
2021/12/04 07:33:18;;;;;;;57.20;18.85;;;4.20;99.90;;;;;;5059194;28;20041;-66
2021/12/04 07:35:44;;;;;;;54.50;18.75;;;4.20;99.90;;;;;;5060310;28;20097;-66
2021/12/04 07:38:10;;;;;;;61.08;19.38;;;4.30;99.90;;;;;;5052865;28;20128;-67
2021/12/04 07:40:38;;;;;;;62.78;19.58;;;4.30;99.90;;;;;;5050881;28;20063;-67
2021/12/04 07:43:04;;;;;;;61.63;19.07;;;4.30;99.90;;;;;;5051242;28;20037;-66
2021/12/04 07:45:30;;;;;;;61.17;19.92;;;4.20;99.90;;;;;;5053529;28;20286;-67
2021/12/04 07:47:56;;;;;;;57.72;19.52;;;4.20;99.90;;;;;;5059549;28;20155;-66
2021/12/04 07:50:21;;;;;;;62.47;19.20;;;4.30;99.90;;;;;;5053086;28;20724;-67
2021/12/04 07:52:49;;;;;;;64.55;19.50;;;4.20;99.90;;;;;;5058773;28;20140;-67
2021/12/04 07:55:15;;;;;;;62.28;19.05;;;4.20;99.90;;;;;;5056187;28;20076;-66
2021/12/04 07:57:41;;;;;;;66.40;19.52;;;4.30;99.90;;;;;;5052828;28;20454;-67
2021/12/04 08:00:10;;;;;;;62.90;20.88;;;4.20;99.90;;;;;;5058441;28;20140;-67
2021/12/04 08:02:36;;;;;;;58.33;19.85;;;4.30;99.90;;;;;;5073085;28;20166;-67
2021/12/04 08:05:01;;;;;;;57.30;18.35;;;4.30;99.90;;;;;;5060654;28;20163;-67
2021/12/04 08:07:27;;;;;;;55.08;19.30;;;4.30;99.90;;;;;;5056969;28;20513;-66
2021/12/04 08:09:53;;;;;;;56.58;18.85;;;4.30;99.90;;;;;;5064334;28;20139;-66
2021/12/04 08:12:18;;;;;;;55.95;18.33;;;4.30;99.90;;;;;;5063440;28;20515;-66
2021/12/04 08:14:44;;;;;;;57.90;19.05;;;4.30;99.90;;;;;;5066744;28;20086;-67
2021/12/04 08:17:10;;;;;;;64.82;20.20;;;4.30;99.90;;;;;;5058544;28;20041;-66
2021/12/04 08:19:35;;;;;;;55.60;18.98;;;4.30;99.90;;;;;;5065633;28;20434;-66
2021/12/04 08:22:01;;;;;;;55.08;18.27;;;4.30;99.90;;;;;;5055274;28;20053;-66
2021/12/04 08:24:27;;;;;;;58.05;18.52;;;4.30;99.90;;;;;;5063469;28;20064;-68
2021/12/04 08:26:53;;;;;;;58.35;19.25;;;4.30;99.90;;;;;;5063158;28;20102;-66
2021/12/04 08:29:18;;;;;;;59.40;19.90;;;4.30;99.90;;;;;;5059093;28;20037;-65
2021/12/04 08:31:46;;;;;;;58.33;20.25;;;4.30;99.90;;;;;;5056946;28;20106;-66
2021/12/04 08:34:12;;;;;;;43.30;16.63;;;4.30;99.90;;;;;;5060399;28;20045;-66
2021/12/04 08:36:38;;;;;;;50.13;18.20;;;4.40;99.90;;;;;;5067628;28;20116;-67
2021/12/04 08:39:05;;;;;;;50.17;18.50;;;4.30;99.90;;;;;;5073640;28;20496;-67
2021/12/04 08:41:31;;;;;;;49.90;17.48;;;4.30;99.90;;;;;;5066899;28;20052;-66
2021/12/04 08:43:57;;;;;;;48.20;17.77;;;4.40;99.90;;;;;;5061604;28;20372;-67
2021/12/04 08:46:23;;;;;;;50.28;18.02;;;4.40;99.90;;;;;;5054435;28;20045;-66
2021/12/04 08:48:51;;;;;;;53.08;18.23;;;4.40;99.90;;;;;;5066276;28;20486;-66
2021/12/04 08:51:21;;;;;;;40.05;17.27;;;4.40;99.90;;;;;;5063481;28;20546;-66
2021/12/04 08:53:46;;;;;;;43.60;16.63;;;4.50;99.90;;;;;;5053522;28;20498;-67
2021/12/04 08:56:12;;;;;;;42.10;16.52;;;4.40;99.90;;;;;;5053863;28;20201;-66
2021/12/04 08:58:40;;;;;;;46.85;17.77;;;4.40;99.90;;;;;;5058847;28;20044;-67
2021/12/04 09:01:11;;;;;;;47.47;18.40;;;4.40;99.90;;;;;;5058565;28;20190;-66
2021/12/04 09:03:40;;;;;;;45.58;17.00;;;4.40;99.90;;;;;;5058296;28;20054;-67
2021/12/04 09:06:06;;;;;;;42.28;16.30;;;4.50;99.90;;;;;;5059717;28;20135;-67
2021/12/04 09:08:32;;;;;;;39.40;16.98;;;4.40;99.90;;;;;;5069656;28;20533;-67
2021/12/04 09:11:03;;;;;;;44.83;16.98;;;4.40;99.90;;;;;;5056340;28;20043;-67
2021/12/04 09:13:29;;;;;;;41.97;15.88;;;4.50;99.90;;;;;;5062077;28;20033;-67
2021/12/04 09:15:56;;;;;;;41.58;16.02;;;4.40;99.90;;;;;;5066086;28;20505;-67
2021/12/04 09:18:22;;;;;;;36.47;15.38;;;4.40;99.90;;;;;;5059217;28;20770;-68
2021/12/04 09:20:50;;;;;;;39.83;14.80;;;4.40;99.90;;;;;;5069103;28;20049;-66
2021/12/04 09:23:18;;;;;;;35.20;14.27;;;4.40;99.90;;;;;;5059596;28;20039;-67
2021/12/04 09:25:48;;;;;;;35.65;13.82;;;4.50;99.90;;;;;;5055573;28;20056;-67
2021/12/04 09:36:38;;;;;;;33.65;13.65;;;4.50;99.90;;;;;;5058668;28;20124;-67
2021/12/04 10:06:30;;;;;;;22.65;12.88;;;4.60;99.90;;;;;;5058252;28;19927;-68
2021/12/04 10:12:19;;;;;;;21.52;12.45;;;4.70;99.90;;;;;;5062776;28;20099;-67
2021/12/04 10:23:46;;;;;;;26.10;13.63;;;4.80;99.90;;;;;;5060016;28;20040;-67
2021/12/04 10:32:24;;;;;;;21.80;11.82;;;4.90;99.90;;;;;;5052556;28;20457;-67
2021/12/04 10:34:47;;;;;;;18.90;11.82;;;4.90;99.90;;;;;;5051280;28;20222;-67
2021/12/04 10:37:22;;;;;;;20.98;11.25;;;4.90;99.90;;;;;;5050416;28;20075;-67
2021/12/04 10:39:49;;;;;;;17.38;11.00;;;5.00;99.90;;;;;;5061044;28;20049;-67
2021/12/04 10:42:18;;;;;;;21.23;11.88;;;5.00;99.90;;;;;;5055189;28;20398;-67
2021/12/04 10:44:51;;;;;;;23.98;13.30;;;5.00;99.90;;;;;;5052826;28;20052;-66
2021/12/04 10:47:22;;;;;;;20.50;13.82;;;5.00;99.90;;;;;;5066133;28;20119;-68
2021/12/04 10:52:33;;;;;;;21.70;13.05;;;5.10;99.90;;;;;;5051681;28;20159;-68
2021/12/04 11:01:06;;;;;;;21.67;11.48;;;5.20;99.90;;;;;;5065558;28;20487;-66
2021/12/04 11:03:57;;;;;;;21.27;12.00;;;5.20;99.90;;;;;;5066220;28;20446;-67
2021/12/04 11:07:06;;;;;;;17.00;11.23;;;5.20;99.90;;;;;;5064147;28;20091;-66
2021/12/04 11:34:57;;;;;;;23.10;11.90;;;5.20;99.90;;;;;;5065472;28;20388;-66
2021/12/04 11:35:18;;;;;;;20.25;11.85;;;5.20;99.90;;;;;;5057619;28;20302;-67
2021/12/04 11:42:39;;;;;;;19.75;10.90;;;5.20;99.90;;;;;;5056580;28;20045;-67
2021/12/04 11:45:17;;;;;;;17.80;10.43;;;5.20;99.90;;;;;;5061951;28;20044;-67
2021/12/04 11:47:49;;;;;;;19.23;11.20;;;5.20;99.90;;;;;;5057326;28;20435;-69
2021/12/04 11:50:37;;;;;;;22.40;11.60;;;5.20;99.90;;;;;;5056512;28;20041;-67
2021/12/04 11:53:16;;;;;;;22.40;11.35;;;5.30;99.90;;;;;;5057528;28;20108;-68
2021/12/04 11:55:45;;;;;;;;;;;5.20;99.90;;;;;;5050507;28;20041;-67
2021/12/04 11:58:27;;;;;;;19.92;11.07;;;5.30;99.90;;;;;;5059340;28;19928;-67
2021/12/04 12:00:58;;;;;;;21.40;12.40;;;5.30;99.90;;;;;;5063455;28;20044;-67
2021/12/04 12:03:29;;;;;;;18.55;10.73;;;5.30;99.90;;;;;;5056147;28;20455;-68
2021/12/04 12:06:04;;;;;;;18.80;11.00;;;5.30;99.90;;;;;;5060674;28;20502;-69
2021/12/04 12:08:37;;;;;;;18.67;11.07;;;5.30;99.90;;;;;;5064147;28;20090;-68
2021/12/04 12:11:08;;;;;;;21.23;10.80;;;5.30;99.90;;;;;;5039258;28;20479;-67
2021/12/04 12:13:44;;;;;;;21.08;10.82;;;5.30;99.90;;;;;;5064585;28;20041;-66
2021/12/04 12:16:21;;;;;;;23.60;10.93;;;5.30;99.90;;;;;;5056162;28;20041;-67
2021/12/04 12:18:55;;;;;;;17.40;10.70;;;5.30;99.90;;;;;;5051233;28;20085;-68
2021/12/04 12:21:31;;;;;;;19.23;11.45;;;5.30;99.90;;;;;;5053673;28;20474;-67
2021/12/04 12:32:43;;;;;;;23.20;12.40;;;5.20;99.90;;;;;;5054591;28;20479;-66
2021/12/04 12:38:09;;;;;;;24.25;13.13;;;5.20;99.90;;;;;;5052022;28;20061;-67
2021/12/04 12:40:35;;;;;;;23.05;11.77;;;5.20;99.90;;;;;;5060507;28;20045;-68
2021/12/04 12:43:16;;;;;;;27.38;13.80;;;5.20;99.90;;;;;;5052634;28;20561;-68
2021/12/04 12:45:55;;;;;;;29.08;12.75;;;5.30;99.90;;;;;;5052014;28;20041;-69
2021/12/04 12:48:21;;;;;;;;;;;5.30;99.90;;;;;;5061146;28;20494;-69
2021/12/04 12:50:47;;;;;;;30.10;12.73;;;5.40;99.90;;;;;;5035769;28;19938;-68
2021/12/04 12:53:39;;;;;;;26.10;12.52;;;5.40;99.90;;;;;;5062725;28;20085;-67
2021/12/04 12:56:10;;;;;;;29.73;14.25;;;5.40;99.90;;;;;;5059729;28;20033;-68
2021/12/04 12:58:44;;;;;;;27.20;13.90;;;5.30;99.90;;;;;;5068809;28;20045;-67
2021/12/04 13:12:46;;;;;;;32.65;15.27;;;5.20;99.90;;;;;;5053045;28;20045;-68
2021/12/04 13:15:15;;;;;;;30.05;14.23;;;5.20;99.90;;;;;;5058503;28;20033;-68
2021/12/04 13:17:41;;;;;;;32.05;15.45;;;5.20;99.90;;;;;;5053317;28;20057;-68
2021/12/04 13:20:09;;;;;;;35.58;15.88;;;5.20;99.90;;;;;;5052900;28;20049;-67
2021/12/04 13:22:35;;;;;;;33.55;15.68;;;5.20;99.90;;;;;;5059099;28;20140;-68
2021/12/04 13:25:10;;;;;;;36.83;15.18;;;5.20;99.90;;;;;;5060861;28;20049;-68
2021/12/04 13:30:14;;;;;;;33.88;16.73;;;5.20;99.90;;;;;;5057238;28;20053;-68
2021/12/04 13:32:42;;;;;;;38.22;16.77;;;5.20;99.90;;;;;;5060578;28;20262;-67
2021/12/04 13:35:11;;;;;;;34.10;16.52;;;5.20;99.90;;;;;;5060046;28;20041;-67
2021/12/04 13:37:37;;;;;;;;;;;5.20;99.90;;;;;;5057167;28;20037;-68
2021/12/04 13:40:07;;;;;;;38.08;17.20;;;5.20;99.90;;;;;;5065972;28;19940;-68
2021/12/04 13:42:34;;;;;;;36.83;17.52;;;5.20;99.90;;;;;;5062819;28;21598;-68
2021/12/04 13:45:02;;;;;;;43.25;18.10;;;5.20;99.90;;;;;;5068231;28;20129;-68
2021/12/04 13:47:28;;;;;;;42.03;19.00;;;5.20;99.90;;;;;;5060892;28;20493;-67
2021/12/04 13:49:54;;;;;;;39.97;17.23;;;5.20;99.90;;;;;;5069885;28;20040;-68
2021/12/04 13:52:21;;;;;;;44.40;18.80;;;5.20;99.90;;;;;;5053149;28;20049;-67
2021/12/04 13:54:59;;;;;;;46.78;19.70;;;5.20;99.90;;;;;;5059903;28;20037;-68
2021/12/04 13:57:25;;;;;;;43.20;19.42;;;5.20;99.90;;;;;;5056498;28;20360;-68
2021/12/04 14:00:00;;;;;;;46.22;19.60;;;5.20;99.90;;;;;;5062923;28;20047;-67
2021/12/04 14:02:31;;;;;;;40.80;18.17;;;5.20;99.90;;;;;;5053326;28;20140;-68
2021/12/04 14:05:17;;;;;;;42.92;19.40;;;5.20;99.90;;;;;;5065646;28;20041;-68
2021/12/04 14:07:53;;;;;;;39.38;18.25;;;5.20;99.90;;;;;;5066962;28;20159;-68
2021/12/04 14:10:23;;;;;;;48.63;19.75;;;5.20;99.90;;;;;;5065309;28;20105;-68
2021/12/04 14:12:50;;;;;;;43.60;19.08;;;5.20;99.90;;;;;;5061774;28;20055;-68
2021/12/04 14:15:19;;;;;;;46.40;20.17;;;5.20;99.90;;;;;;5068096;28;20379;-67
2021/12/04 14:17:45;;;;;;;48.70;20.98;;;5.20;99.90;;;;;;5062921;28;20506;-68
2021/12/04 14:20:20;;;;;;;46.33;20.27;;;5.10;99.90;;;;;;5069705;28;20041;-67
2021/12/04 14:22:50;;;;;;;53.90;20.38;;;5.20;99.90;;;;;;5060594;28;20033;-68
2021/12/04 14:25:17;;;;;;;48.03;21.25;;;5.10;99.90;;;;;;5057231;28;20044;-68
2021/12/04 14:27:44;;;;;;;49.17;21.65;;;5.30;99.90;;;;;;5059631;28;20467;-67
2021/12/04 14:30:12;;;;;;;50.70;22.17;;;5.10;99.90;;;;;;5058383;28;20119;-67
2021/12/04 14:32:40;;;;;;;50.03;20.70;;;5.10;99.90;;;;;;5069855;28;20147;-69
2021/12/04 14:35:16;;;;;;;50.22;20.95;;;5.10;99.90;;;;;;5052185;28;20044;-69
2021/12/04 14:37:45;;;;;;;49.03;20.50;;;5.10;99.90;;;;;;5049812;28;20467;-69
2021/12/04 14:40:17;;;;;;;62.92;23.00;;;5.10;99.90;;;;;;5065582;28;20037;-68
2021/12/04 14:42:43;;;;;;;50.40;22.17;;;5.10;99.90;;;;;;5056393;28;20103;-69
2021/12/04 14:45:30;;;;;;;59.97;23.60;;;5.10;99.90;;;;;;5058863;28;20565;-69
2021/12/04 14:48:11;;;;;;;59.72;22.95;;;5.10;99.90;;;;;;5059805;28;20036;-69
2021/12/04 14:50:46;;;;;;;59.20;22.85;;;5.10;99.90;;;;;;5051224;28;20084;-68
2021/12/04 14:53:15;;;;;;;58.40;23.15;;;5.10;99.90;;;;;;5056095;28;20642;-69
2021/12/04 14:55:43;;;;;;;55.15;21.85;;;5.30;99.90;;;;;;5055164;28;20049;-68
2021/12/04 14:58:13;;;;;;;58.67;23.80;;;5.10;99.90;;;;;;5056374;28;20040;-69
2021/12/04 15:01:01;;;;;;;55.75;23.42;;;5.10;99.90;;;;;;5052954;28;20037;-67
2021/12/04 15:03:41;;;;;;;60.72;24.00;;;5.10;99.90;;;;;;5061383;28;20041;-68
2021/12/04 15:06:10;;;;;;;56.15;22.02;;;5.10;99.90;;;;;;5062328;28;20079;-68
2021/12/04 15:08:40;;;;;;;53.42;22.75;;;5.10;99.90;;;;;;5058499;28;20045;-68
2021/12/04 15:11:08;;;;;;;59.22;23.52;;;5.10;99.90;;;;;;5051715;28;20071;-68
2021/12/04 15:13:41;;;;;;;59.87;23.83;;;5.00;99.90;;;;;;5039703;28;20076;-67
2021/12/04 15:16:10;;;;;;;58.10;22.92;;;5.00;99.90;;;;;;5050556;28;20160;-68
2021/12/04 15:18:38;;;;;;;54.53;22.92;;;5.10;99.90;;;;;;5054378;28;20399;-68
2021/12/04 15:21:12;;;;;;;55.75;23.02;;;5.00;99.90;;;;;;5042068;28;20498;-68
2021/12/04 15:23:39;;;;;;;57.20;23.05;;;5.10;99.90;;;;;;5056062;28;20171;-69
2021/12/04 15:26:26;;;;;;;59.15;22.27;;;5.00;99.90;;;;;;5052620;28;20044;-67
2021/12/04 15:28:54;;;;;;;66.28;24.50;;;5.00;99.90;;;;;;5056077;28;20055;-68
2021/12/04 15:31:23;;;;;;;57.28;22.98;;;5.00;99.90;;;;;;5074002;28;20536;-68
2021/12/04 15:33:51;;;;;;;68.50;24.75;;;5.00;99.90;;;;;;5053761;28;20047;-68
2021/12/04 15:36:22;;;;;;;;;;;5.00;99.90;;;;;;5057208;28;20128;-68
2021/12/04 15:38:51;;;;;;;60.53;24.40;;;5.00;99.90;;;;;;5060991;28;19999;-68
2021/12/04 15:41:33;;;;;;;66.45;26.23;;;5.00;99.90;;;;;;5061468;28;20045;-67
2021/12/04 15:53:00;;;;;;;59.05;23.77;;;5.00;99.90;;;;;;5056598;28;20099;-67
2021/12/04 15:55:35;;;;;;;67.32;24.85;;;5.10;99.90;;;;;;5053329;28;20041;-68